Manea, United Kingdom
Current Conditions -  °F | °C
As of 4:18 AM on Friday 28 Nov 2014 (Local Time) from EGUN Reporting Station
Haze Haze  
Wind Chill: 10°   Ceiling: 2100
Heat Index: 10°   Visibility: 6mi
Dew Point: 10°   Wind: 6mph
Humidity: 100%   Direction: 80°E
Pressure: 29.62"   Gusts: NA
Location:  52.48°N, 0.18°E
Report Text: EGUN 280418Z AUTO 08005KT 9000 BR SCT008 OVC021 10/10 A2962 RMK AO2 CIG 007V021
Loading
Personal Weather Stations






























Interactive Weather Map New forecast layout! Learn more

10-Day Weather Forecast

Advertisements
Track Severe Weather on mobile